createdAt,value
2023-01-28T00:09:35.891Z,65.17
2023-01-28T00:19:42.490Z,65.74
2023-01-28T00:29:46.019Z,66.40
2023-01-28T00:39:50.229Z,66.56
2023-01-28T00:49:58.043Z,66.66
2023-01-28T01:00:01.814Z,66.26
2023-01-28T01:10:06.175Z,66.18
2023-01-28T01:20:23.501Z,66.60
2023-01-28T01:30:29.762Z,66.28
2023-01-28T01:40:33.910Z,66.20
2023-01-28T01:51:04.598Z,66.20
2023-01-28T02:01:11.937Z,65.79
2023-01-28T02:11:19.972Z,65.65
2023-01-28T02:21:46.886Z,65.50
2023-01-28T02:32:09.194Z,65.40
2023-01-28T02:42:29.388Z,65.41
2023-01-28T02:53:11.089Z,65.43
2023-01-28T03:03:27.076Z,65.37
2023-01-28T03:13:51.057Z,65.43
2023-01-28T03:24:50.252Z,65.45
2023-01-28T03:35:13.415Z,65.42
2023-01-28T03:45:17.927Z,65.29
2023-01-28T03:55:26.040Z,65.35
2023-01-28T04:05:30.284Z,65.03
2023-01-28T04:15:38.565Z,65.00
2023-01-28T04:25:42.272Z,65.01
2023-01-28T04:35:46.355Z,65.17
2023-01-28T04:46:13.092Z,64.83
2023-01-28T04:56:20.507Z,64.78
2023-01-28T05:06:24.178Z,64.95
2023-01-28T05:16:34.422Z,65.14
2023-01-28T05:26:40.489Z,64.86
2023-01-28T05:36:44.591Z,64.89
2023-01-28T05:47:08.008Z,64.63
2023-01-28T05:57:23.750Z,64.48
2023-01-28T06:07:27.876Z,64.06
2023-01-28T06:17:35.866Z,63.89
2023-01-28T06:27:46.388Z,63.48
2023-01-28T06:37:50.185Z,63.23
2023-01-28T06:47:53.851Z,63.09
2023-01-28T06:57:58.760Z,63.16
2023-01-28T07:08:02.944Z,63.30
2023-01-28T07:18:06.548Z,63.39
2023-01-28T07:28:12.170Z,63.12
2023-01-28T07:38:18.299Z,62.66
2023-01-28T07:48:21.859Z,62.01
2023-01-28T07:58:27.349Z,61.48
2023-01-28T08:08:32.991Z,61.17
2023-01-28T08:18:36.604Z,60.65
2023-01-28T08:28:40.137Z,59.98
2023-01-28T08:38:45.714Z,59.39
2023-01-28T08:48:51.135Z,59.16
2023-01-28T08:58:56.806Z,58.93
2023-01-28T09:09:01.323Z,57.75
2023-01-28T09:19:04.822Z,56.72
2023-01-28T09:29:10.695Z,55.61
2023-01-28T09:39:14.519Z,55.03
2023-01-28T09:49:32.571Z,54.38
2023-01-28T09:59:37.369Z,53.79
2023-01-28T10:10:00.351Z,52.65
2023-01-28T10:20:31.201Z,52.08
2023-01-28T10:30:46.688Z,51.98
2023-01-28T10:40:51.581Z,52.28
2023-01-28T10:51:08.041Z,51.83
2023-01-28T11:01:11.772Z,51.04
2023-01-28T11:11:15.949Z,51.70
2023-01-28T11:21:26.356Z,51.08
2023-01-28T11:31:40.380Z,50.78
2023-01-28T11:41:47.519Z,49.73
2023-01-28T11:51:57.226Z,48.88
2023-01-28T12:02:20.973Z,48.60
2023-01-28T12:12:51.000Z,48.30
2023-01-28T12:23:36.478Z,48.35
2023-01-28T12:33:56.748Z,48.98
2023-01-28T12:44:13.795Z,49.14
2023-01-28T12:55:06.991Z,48.83
2023-01-28T13:05:36.986Z,48.52
2023-01-28T13:15:46.365Z,48.58
2023-01-28T13:25:57.043Z,48.30
2023-01-28T13:36:11.257Z,48.11
2023-01-28T13:46:29.521Z,48.08
2023-01-28T13:57:01.368Z,48.12
2023-01-28T14:07:12.139Z,48.34
2023-01-28T14:17:24.505Z,48.64
2023-01-28T14:27:43.560Z,48.66
2023-01-28T14:38:07.193Z,48.80
2023-01-28T14:48:32.729Z,49.08
2023-01-28T14:58:42.131Z,49.01
2023-01-28T15:08:45.653Z,48.85
2023-01-28T15:18:51.782Z,49.02
2023-01-28T15:28:58.045Z,49.32
2023-01-28T15:39:01.632Z,49.43
2023-01-28T15:49:07.443Z,49.65
2023-01-28T15:59:16.179Z,49.19
2023-01-28T16:09:31.546Z,49.35
2023-01-28T16:19:41.061Z,49.37
2023-01-28T16:29:44.643Z,49.45
2023-01-28T16:39:49.624Z,49.68
2023-01-28T16:49:53.141Z,49.86
2023-01-28T16:59:56.712Z,49.81
2023-01-28T17:10:01.189Z,50.09
2023-01-28T17:20:06.259Z,49.71
2023-01-28T17:30:15.054Z,49.94
2023-01-28T17:40:19.749Z,50.05
2023-01-28T17:50:27.612Z,50.22
2023-01-28T18:00:31.602Z,50.07
2023-01-28T18:10:36.011Z,50.15
2023-01-28T18:20:41.670Z,50.36
2023-01-28T18:30:45.219Z,50.44
2023-01-28T18:40:55.939Z,50.80
2023-01-28T18:50:59.711Z,51.36
2023-01-28T19:01:11.793Z,51.50
2023-01-28T19:11:17.467Z,51.73
2023-01-28T19:21:24.756Z,51.79
2023-01-28T19:31:28.936Z,51.79
2023-01-28T19:41:33.008Z,52.27
2023-01-28T19:51:37.048Z,52.50
2023-01-28T20:01:42.842Z,52.17
2023-01-28T20:11:47.006Z,52.07
2023-01-28T20:21:52.310Z,52.50
2023-01-28T20:32:13.724Z,52.60
2023-01-28T20:42:21.235Z,52.65
2023-01-28T20:52:25.158Z,52.56
2023-01-28T21:02:32.216Z,52.64
2023-01-28T21:12:37.752Z,52.87
2023-01-28T21:22:41.337Z,53.22
2023-01-28T21:32:45.007Z,53.82
2023-01-28T21:42:48.541Z,53.64
2023-01-28T21:52:52.011Z,54.06
2023-01-28T22:02:58.130Z,54.64
2023-01-28T22:13:01.774Z,54.81
2023-01-28T22:23:06.763Z,55.14
2023-01-28T22:33:12.517Z,55.56
2023-01-28T22:43:16.290Z,55.87
2023-01-28T22:53:20.053Z,55.65
2023-01-28T23:03:25.649Z,56.02
2023-01-28T23:13:51.734Z,55.90
2023-01-28T23:24:21.196Z,56.24
2023-01-28T23:34:25.879Z,56.78
2023-01-28T23:44:29.447Z,57.04
2023-01-28T23:54:35.552Z,57.19
